createdAt,value
2023-03-17T00:01:55.502Z,3.34
2023-03-17T00:04:57.161Z,3.39
2023-03-17T00:08:01.919Z,3.33
2023-03-17T00:11:03.560Z,3.44
2023-03-17T00:14:05.204Z,3.22
2023-03-17T00:17:06.969Z,3.24
2023-03-17T00:20:12.067Z,3.20
2023-03-17T00:23:23.205Z,3.12
2023-03-17T00:26:25.091Z,3.19
2023-03-17T00:29:26.755Z,3.23
2023-03-17T00:32:28.518Z,3.28
2023-03-17T00:35:30.197Z,3.25
2023-03-17T00:38:31.853Z,3.22
2023-03-17T00:41:33.513Z,3.16
2023-03-17T00:44:35.158Z,3.08
2023-03-17T00:47:36.823Z,3.07
2023-03-17T00:50:38.506Z,2.93
2023-03-17T00:53:40.120Z,3.03
2023-03-17T00:56:41.930Z,3.01
2023-03-17T00:59:43.595Z,3.00
2023-03-17T01:02:46.153Z,2.96
2023-03-17T01:05:48.310Z,3.02
2023-03-17T01:08:49.979Z,3.12
2023-03-17T01:11:51.641Z,3.18
2023-03-17T01:14:53.317Z,3.27
2023-03-17T01:17:55.153Z,3.31
2023-03-17T01:20:56.802Z,3.41
2023-03-17T01:23:58.561Z,3.44
2023-03-17T01:27:00.221Z,3.45
2023-03-17T01:30:02.256Z,3.47
2023-03-17T01:33:04.447Z,3.50
2023-03-17T01:36:06.547Z,3.45
2023-03-17T01:39:08.199Z,3.50
2023-03-17T01:42:10.227Z,3.48
2023-03-17T01:45:49.720Z,3.46
2023-03-17T01:49:23.544Z,3.43
2023-03-17T01:52:25.195Z,3.46
2023-03-17T01:55:26.880Z,3.47
2023-03-17T01:58:28.530Z,3.48
2023-03-17T02:01:33.725Z,3.44
2023-03-17T02:04:35.464Z,3.44
2023-03-17T02:07:37.215Z,3.37
2023-03-17T02:10:39.124Z,3.37
2023-03-17T02:13:40.765Z,3.32
2023-03-17T02:16:44.721Z,3.33
2023-03-17T02:19:46.380Z,3.35
2023-03-17T02:22:49.782Z,3.32
2023-03-17T02:25:52.339Z,3.22
2023-03-17T02:28:53.997Z,3.28
2023-03-17T02:31:55.636Z,3.21
2023-03-17T02:34:57.400Z,3.25
2023-03-17T02:37:59.062Z,3.31
2023-03-17T02:41:03.440Z,3.28
2023-03-17T02:44:05.129Z,3.23
2023-03-17T02:47:07.270Z,3.28
2023-03-17T02:50:09.821Z,3.30
2023-03-17T02:53:11.481Z,3.31
2023-03-17T02:56:13.159Z,3.29
2023-03-17T02:59:14.804Z,3.29
2023-03-17T03:02:16.452Z,3.29
2023-03-17T03:05:18.097Z,3.22
2023-03-17T03:08:19.894Z,3.25
2023-03-17T03:11:21.523Z,3.24
2023-03-17T03:14:23.547Z,3.21
2023-03-17T03:17:25.191Z,3.19
2023-03-17T03:20:26.817Z,3.22
2023-03-17T03:23:28.488Z,3.27
2023-03-17T03:26:30.134Z,3.28
2023-03-17T03:29:31.777Z,3.26
2023-03-17T03:32:33.832Z,3.21
2023-03-17T03:35:35.529Z,3.25
2023-03-17T03:38:39.991Z,3.26
2023-03-17T03:41:42.388Z,3.22
2023-03-17T03:44:44.008Z,3.16
2023-03-17T03:47:45.671Z,3.10
2023-03-17T03:50:47.650Z,3.09
2023-03-17T03:53:49.276Z,3.13
2023-03-17T03:56:50.918Z,3.16
2023-03-17T03:59:52.572Z,3.09
2023-03-17T04:02:54.216Z,3.10
2023-03-17T04:05:55.878Z,3.10
2023-03-17T04:08:58.427Z,3.01
2023-03-17T04:12:00.224Z,3.11
2023-03-17T04:15:01.877Z,3.13
2023-03-17T04:18:03.565Z,3.15
2023-03-17T04:21:05.469Z,3.10
2023-03-17T04:24:07.691Z,3.08
2023-03-17T04:27:09.334Z,3.03
2023-03-17T04:30:12.570Z,3.01
2023-03-17T04:33:14.236Z,2.98
2023-03-17T04:36:20.778Z,2.96
2023-03-17T04:39:22.437Z,2.93
2023-03-17T04:42:24.094Z,2.96
2023-03-17T04:45:25.786Z,2.93
2023-03-17T04:48:27.545Z,2.83
2023-03-17T04:51:29.144Z,2.83
2023-03-17T04:54:30.791Z,2.85
2023-03-17T04:57:32.591Z,2.89
2023-03-17T05:00:34.247Z,2.84
2023-03-17T05:03:35.891Z,2.80
2023-03-17T05:06:37.551Z,2.75
2023-03-17T05:09:39.148Z,2.85
2023-03-17T05:12:40.801Z,2.90
2023-03-17T05:15:46.818Z,2.94
2023-03-17T05:18:48.464Z,2.95
2023-03-17T05:21:50.112Z,2.98
2023-03-17T05:24:51.756Z,2.96
2023-03-17T05:27:53.428Z,2.92
2023-03-17T05:30:55.162Z,2.97
2023-03-17T05:33:57.115Z,2.97
2023-03-17T05:36:58.745Z,3.00
2023-03-17T05:40:01.242Z,3.03
2023-03-17T05:43:02.945Z,3.12
2023-03-17T05:46:04.838Z,3.16
2023-03-17T05:49:06.473Z,3.22
2023-03-17T05:52:08.153Z,3.24
2023-03-17T05:55:10.105Z,3.40
2023-03-17T05:58:11.791Z,3.46
2023-03-17T06:01:13.428Z,3.48
2023-03-17T06:04:15.072Z,3.49
2023-03-17T06:07:16.733Z,3.59
2023-03-17T06:10:18.502Z,3.62
2023-03-17T06:13:20.129Z,3.73
2023-03-17T06:16:21.862Z,3.83
2023-03-17T06:19:23.541Z,3.82
2023-03-17T06:22:25.217Z,3.87
2023-03-17T06:25:26.951Z,3.94
2023-03-17T06:28:28.630Z,3.91
2023-03-17T06:31:30.336Z,3.95
2023-03-17T06:34:32.017Z,4.03
2023-03-17T06:37:33.641Z,4.14
2023-03-17T06:40:35.285Z,4.27
2023-03-17T06:43:36.925Z,4.36
2023-03-17T06:46:38.593Z,4.40
2023-03-17T06:49:40.243Z,4.45
2023-03-17T06:52:42.092Z,4.49
2023-03-17T06:55:43.770Z,4.60
2023-03-17T06:58:45.395Z,4.74
2023-03-17T07:01:47.165Z,4.85
2023-03-17T07:04:48.874Z,4.89
2023-03-17T07:07:50.572Z,4.89
2023-03-17T07:10:54.931Z,5.07
2023-03-17T07:13:56.585Z,5.14
2023-03-17T07:16:58.358Z,5.24
2023-03-17T07:20:00.077Z,5.33
2023-03-17T07:23:01.994Z,5.43
2023-03-17T07:26:03.671Z,5.55
2023-03-17T07:29:05.439Z,5.60
2023-03-17T07:32:07.604Z,5.61
2023-03-17T07:35:09.327Z,5.78
2023-03-17T07:38:11.001Z,5.99
2023-03-17T07:41:12.674Z,6.01
2023-03-17T07:44:14.312Z,6.11
2023-03-17T07:47:15.968Z,6.14
2023-03-17T07:50:17.901Z,6.29
2023-03-17T07:53:19.545Z,6.32
2023-03-17T07:56:21.219Z,6.52
2023-03-17T07:59:22.877Z,6.45
2023-03-17T08:02:24.646Z,6.64
2023-03-17T08:05:26.357Z,6.73
2023-03-17T08:08:27.992Z,6.83
2023-03-17T08:11:29.754Z,6.91
2023-03-17T08:14:31.411Z,7.02
2023-03-17T08:17:33.118Z,7.16
2023-03-17T08:20:35.462Z,7.31
2023-03-17T08:23:37.311Z,7.43
2023-03-17T08:26:38.972Z,7.73
2023-03-17T08:29:40.646Z,7.82
2023-03-17T08:32:42.913Z,7.84
2023-03-17T08:35:44.614Z,7.84
2023-03-17T08:38:46.404Z,7.95
2023-03-17T08:41:48.143Z,7.94
2023-03-17T08:44:49.893Z,8.20
2023-03-17T08:47:51.523Z,8.40
2023-03-17T08:50:56.713Z,8.77
2023-03-17T08:54:01.344Z,8.78
2023-03-17T08:57:03.019Z,8.82
2023-03-17T09:00:05.557Z,8.89
2023-03-17T09:03:07.202Z,8.92
2023-03-17T09:06:09.319Z,8.85
2023-03-17T09:09:10.948Z,8.87
2023-03-17T09:12:12.623Z,9.10
2023-03-17T09:15:14.317Z,9.35
2023-03-17T09:18:16.104Z,9.29
2023-03-17T09:21:17.745Z,9.51
2023-03-17T09:24:20.682Z,9.64
2023-03-17T09:27:22.340Z,9.89
2023-03-17T09:30:24.046Z,9.94
2023-03-17T09:33:26.034Z,10.00
2023-03-17T09:36:27.661Z,9.99
2023-03-17T09:39:29.317Z,10.11
2023-03-17T09:42:49.782Z,10.15
2023-03-17T09:45:51.442Z,9.80
2023-03-17T09:49:09.261Z,9.74
2023-03-17T09:52:18.469Z,9.99
2023-03-17T09:55:24.929Z,10.31
2023-03-17T09:58:29.638Z,10.47
2023-03-17T10:01:31.308Z,10.67
2023-03-17T10:04:32.981Z,10.73
2023-03-17T10:07:41.429Z,10.62
2023-03-17T10:10:42.955Z,10.62
2023-03-17T10:13:56.718Z,10.60
2023-03-17T10:17:12.396Z,10.48
2023-03-17T10:20:30.688Z,10.42
2023-03-17T10:23:33.870Z,10.37
2023-03-17T10:26:46.560Z,10.55
2023-03-17T10:29:48.692Z,10.68
2023-03-17T10:32:50.683Z,10.87
2023-03-17T10:35:52.420Z,10.98
2023-03-17T10:38:54.055Z,11.27
2023-03-17T10:42:00.635Z,11.59
2023-03-17T10:45:10.772Z,11.98
2023-03-17T10:48:17.060Z,12.26
2023-03-17T10:51:31.039Z,12.65
2023-03-17T10:54:34.123Z,12.99
2023-03-17T10:57:39.123Z,13.17
2023-03-17T11:00:54.133Z,13.37
2023-03-17T11:03:56.000Z,13.09
2023-03-17T11:06:58.446Z,13.39
2023-03-17T11:10:01.656Z,14.16
2023-03-17T11:13:03.381Z,14.32
2023-03-17T11:16:25.193Z,14.57
2023-03-17T11:19:52.179Z,14.59
2023-03-17T11:23:06.747Z,14.69
2023-03-17T11:26:29.817Z,15.23
2023-03-17T11:29:59.089Z,15.66
2023-03-17T11:33:22.282Z,15.68
2023-03-17T11:36:39.764Z,15.81
2023-03-17T11:39:47.399Z,16.30
2023-03-17T11:43:20.072Z,16.13
2023-03-17T11:46:25.560Z,15.50
2023-03-17T11:49:31.630Z,16.00
2023-03-17T11:52:44.594Z,16.61
2023-03-17T11:56:06.944Z,16.86
2023-03-17T11:59:19.932Z,16.88
2023-03-17T12:02:27.499Z,16.33
2023-03-17T12:05:29.237Z,16.63
2023-03-17T12:08:38.012Z,17.45
2023-03-17T12:11:40.450Z,17.56
2023-03-17T12:14:47.543Z,17.21
2023-03-17T12:17:52.846Z,17.69
2023-03-17T12:21:18.677Z,18.09
2023-03-17T12:24:35.522Z,18.69
2023-03-17T12:28:03.473Z,19.33
2023-03-17T12:31:33.727Z,19.24
2023-03-17T12:34:52.304Z,19.26
2023-03-17T12:37:54.795Z,19.65
2023-03-17T12:41:28.679Z,20.01
2023-03-17T12:44:43.451Z,20.87
2023-03-17T12:47:44.982Z,21.09
2023-03-17T12:51:08.413Z,20.98
2023-03-17T12:54:24.393Z,20.50
2023-03-17T12:57:42.275Z,21.30
2023-03-17T13:00:55.617Z,21.52
2023-03-17T13:04:01.061Z,21.42
2023-03-17T13:07:17.479Z,21.13
2023-03-17T13:10:38.504Z,21.95
2023-03-17T13:13:47.716Z,22.60
2023-03-17T13:16:49.334Z,22.39
2023-03-17T13:20:09.109Z,21.85
2023-03-17T13:23:10.654Z,22.61
2023-03-17T13:26:18.868Z,22.75
2023-03-17T13:29:46.128Z,22.52
2023-03-17T13:33:18.494Z,22.33
2023-03-17T13:36:55.250Z,21.86
2023-03-17T13:40:41.225Z,22.85
2023-03-17T13:44:20.303Z,22.97
2023-03-17T13:47:35.648Z,22.89
2023-03-17T13:50:37.336Z,22.80
2023-03-17T13:53:57.150Z,22.87
2023-03-17T13:57:36.421Z,21.58
2023-03-17T14:00:39.434Z,21.98
2023-03-17T14:03:43.593Z,22.14
2023-03-17T14:06:45.345Z,22.33
2023-03-17T14:09:46.997Z,22.40
2023-03-17T14:12:57.509Z,21.98
2023-03-17T14:16:00.840Z,23.00
2023-03-17T14:19:23.759Z,23.43
2023-03-17T14:22:25.478Z,24.00
2023-03-17T14:25:37.685Z,24.10
2023-03-17T14:28:39.806Z,24.38
2023-03-17T14:31:41.471Z,24.67
2023-03-17T14:34:48.305Z,25.38
2023-03-17T14:37:50.126Z,25.78
2023-03-17T14:40:59.703Z,25.93
2023-03-17T14:44:01.567Z,25.73
2023-03-17T14:47:04.605Z,25.07
2023-03-17T14:50:16.909Z,24.16
2023-03-17T14:53:18.825Z,23.76
2023-03-17T14:56:37.456Z,23.75
2023-03-17T14:59:41.085Z,23.39
2023-03-17T15:02:42.819Z,22.32
2023-03-17T15:05:44.607Z,21.50
2023-03-17T15:08:46.371Z,19.76
2023-03-17T15:11:48.075Z,18.89
2023-03-17T15:14:51.497Z,18.17
2023-03-17T15:17:57.637Z,17.68
2023-03-17T15:20:59.332Z,16.74
2023-03-17T15:24:37.751Z,15.92
2023-03-17T15:27:39.371Z,15.71
2023-03-17T15:30:47.516Z,16.02
2023-03-17T15:33:50.828Z,15.98
2023-03-17T15:36:52.468Z,15.78
2023-03-17T15:39:56.620Z,15.13
2023-03-17T15:42:58.280Z,15.20
2023-03-17T15:46:08.215Z,15.15
2023-03-17T15:49:10.923Z,15.25
2023-03-17T15:52:23.099Z,15.03
2023-03-17T15:55:26.333Z,14.81
2023-03-17T15:58:28.032Z,14.76
2023-03-17T16:01:29.799Z,14.68
2023-03-17T16:04:31.581Z,14.66
2023-03-17T16:07:35.911Z,14.19
2023-03-17T16:10:37.621Z,13.91
2023-03-17T16:13:39.256Z,13.84
2023-03-17T16:16:42.064Z,13.79
2023-03-17T16:19:43.706Z,13.72
2023-03-17T16:22:45.365Z,13.45
2023-03-17T16:25:47.435Z,13.05
2023-03-17T16:28:49.252Z,12.93
2023-03-17T16:31:50.922Z,12.82
2023-03-17T16:34:52.568Z,12.61
2023-03-17T16:37:54.314Z,12.56
2023-03-17T16:41:00.481Z,12.23
2023-03-17T16:44:02.170Z,11.90
2023-03-17T16:47:03.997Z,12.10
2023-03-17T16:50:15.249Z,12.19
2023-03-17T16:53:16.998Z,11.96
2023-03-17T16:56:20.406Z,11.99
2023-03-17T16:59:22.436Z,11.98
2023-03-17T17:02:24.260Z,11.91
2023-03-17T17:05:28.332Z,11.76
2023-03-17T17:08:30.009Z,11.45
2023-03-17T17:11:31.840Z,11.23
2023-03-17T17:14:33.992Z,11.17
2023-03-17T17:17:37.006Z,11.19
2023-03-17T17:20:39.751Z,11.01
2023-03-17T17:23:41.646Z,11.03
2023-03-17T17:26:44.149Z,10.94
2023-03-17T17:29:46.200Z,11.02
2023-03-17T17:32:48.522Z,10.90
2023-03-17T17:35:54.028Z,10.58
2023-03-17T17:38:56.212Z,10.46
2023-03-17T17:41:58.317Z,10.48
2023-03-17T17:45:03.222Z,10.46
2023-03-17T17:48:06.876Z,10.16
2023-03-17T17:51:09.397Z,10.19
2023-03-17T17:54:12.316Z,10.27
2023-03-17T17:57:14.650Z,10.13
2023-03-17T18:00:17.218Z,10.11
2023-03-17T18:03:19.570Z,10.05
2023-03-17T18:06:25.068Z,9.95
2023-03-17T18:09:27.437Z,9.91
2023-03-17T18:12:29.888Z,9.93
2023-03-17T18:15:32.288Z,9.87
2023-03-17T18:18:35.736Z,9.89
2023-03-17T18:21:38.534Z,9.83
2023-03-17T18:24:41.003Z,9.80
2023-03-17T18:27:47.567Z,9.75
2023-03-17T18:30:51.524Z,9.72
2023-03-17T18:33:57.329Z,9.60
2023-03-17T18:37:00.424Z,9.59
2023-03-17T18:40:13.802Z,9.58
2023-03-17T18:43:18.918Z,9.64
2023-03-17T18:46:21.523Z,9.44
2023-03-17T18:49:24.255Z,9.35
2023-03-17T18:52:35.620Z,9.24
2023-03-17T18:55:38.354Z,9.25
2023-03-17T18:58:41.111Z,9.25
2023-03-17T19:01:43.874Z,9.12
2023-03-17T19:04:46.382Z,8.86
2023-03-17T19:07:48.883Z,8.87
2023-03-17T19:10:51.639Z,8.80
2023-03-17T19:13:59.083Z,8.80
2023-03-17T19:17:03.008Z,8.67
2023-03-17T19:20:06.577Z,8.73
2023-03-17T19:23:09.250Z,8.76
2023-03-17T19:26:12.242Z,8.61
2023-03-17T19:29:14.394Z,8.50
2023-03-17T19:32:17.550Z,8.46
2023-03-17T19:35:20.010Z,8.47
2023-03-17T19:38:23.441Z,8.41
2023-03-17T19:41:25.708Z,8.43
2023-03-17T19:44:28.122Z,8.36
2023-03-17T19:47:34.457Z,8.38
2023-03-17T19:50:37.790Z,8.22
2023-03-17T19:53:44.216Z,8.19
2023-03-17T19:56:47.100Z,8.20
2023-03-17T19:59:49.449Z,8.16
2023-03-17T20:02:52.157Z,8.07
2023-03-17T20:05:54.688Z,7.86
2023-03-17T20:09:00.110Z,7.85
2023-03-17T20:12:02.768Z,7.83
2023-03-17T20:15:07.455Z,7.88
2023-03-17T20:18:14.662Z,7.91
2023-03-17T20:21:19.666Z,7.91
2023-03-17T20:24:22.284Z,7.76
2023-03-17T20:27:25.143Z,7.72
2023-03-17T20:30:27.575Z,7.74
2023-03-17T20:33:30.505Z,7.72
2023-03-17T20:36:33.010Z,7.66
2023-03-17T20:39:36.432Z,7.67
2023-03-17T20:42:39.344Z,7.62
2023-03-17T20:45:41.592Z,7.49
2023-03-17T20:48:44.653Z,7.50
2023-03-17T20:51:48.542Z,7.37
2023-03-17T20:54:52.735Z,7.37
2023-03-17T20:57:54.937Z,7.29
2023-03-17T21:00:57.204Z,7.25
2023-03-17T21:03:59.740Z,7.18
2023-03-17T21:07:01.818Z,7.22
2023-03-17T21:10:04.463Z,7.24
2023-03-17T21:13:06.758Z,7.24
2023-03-17T21:16:12.489Z,7.19
2023-03-17T21:19:15.303Z,7.12
2023-03-17T21:22:17.322Z,7.13
2023-03-17T21:25:19.497Z,7.22
2023-03-17T21:28:22.078Z,7.18
2023-03-17T21:31:24.579Z,7.08
2023-03-17T21:34:31.083Z,7.04
2023-03-17T21:37:32.833Z,7.03
2023-03-17T21:40:34.732Z,6.96
2023-03-17T21:43:37.588Z,6.98
2023-03-17T21:46:39.469Z,6.90
2023-03-17T21:49:41.189Z,6.83
2023-03-17T21:52:42.945Z,6.95
2023-03-17T21:55:44.608Z,6.95
2023-03-17T21:58:46.756Z,6.87
2023-03-17T22:01:48.441Z,6.97
2023-03-17T22:04:50.188Z,6.99
2023-03-17T22:07:51.851Z,6.99
2023-03-17T22:10:53.535Z,6.88
2023-03-17T22:13:55.246Z,6.67
2023-03-17T22:16:57.014Z,6.74
2023-03-17T22:19:58.664Z,6.78
2023-03-17T22:23:00.353Z,6.81
2023-03-17T22:26:01.995Z,6.84
2023-03-17T22:29:03.642Z,6.74
2023-03-17T22:32:05.571Z,6.64
2023-03-17T22:35:07.373Z,6.59
2023-03-17T22:38:09.080Z,6.51
2023-03-17T22:41:15.756Z,6.48
2023-03-17T22:44:17.403Z,6.52
2023-03-17T22:47:19.033Z,6.52
2023-03-17T22:50:20.751Z,6.58
2023-03-17T22:53:22.441Z,6.48
2023-03-17T22:56:24.080Z,6.36
2023-03-17T22:59:25.740Z,6.24
2023-03-17T23:02:27.355Z,6.27
2023-03-17T23:05:29.014Z,6.21
2023-03-17T23:08:31.434Z,6.19
2023-03-17T23:11:33.094Z,6.14
2023-03-17T23:14:34.766Z,6.04
2023-03-17T23:17:36.537Z,5.90
2023-03-17T23:20:38.338Z,5.90
2023-03-17T23:23:39.967Z,6.00
2023-03-17T23:26:41.603Z,6.07
2023-03-17T23:29:43.282Z,6.05
2023-03-17T23:32:45.034Z,5.81
2023-03-17T23:35:46.949Z,5.87
2023-03-17T23:38:48.624Z,5.87
2023-03-17T23:41:50.252Z,5.89
2023-03-17T23:44:51.964Z,5.90
2023-03-17T23:47:56.523Z,5.78
2023-03-17T23:50:58.166Z,5.73
2023-03-17T23:53:59.846Z,5.56
2023-03-17T23:57:01.490Z,5.56
